createdAt,value
2018-03-08T00:02:16.929Z,90.98
2018-03-08T00:04:46.147Z,90.79
2018-03-08T00:07:15.376Z,90.74
2018-03-08T00:09:45.362Z,90.48
2018-03-08T00:12:14.662Z,90.25
2018-03-08T00:14:43.887Z,90.23
2018-03-08T00:17:13.895Z,89.99
2018-03-08T00:19:43.483Z,89.52
2018-03-08T00:22:12.726Z,89.90
2018-03-08T00:24:42.713Z,89.99
2018-03-08T00:27:11.950Z,89.98
2018-03-08T00:29:41.155Z,89.99
2018-03-08T00:32:10.763Z,89.95
2018-03-08T00:34:39.972Z,89.56
2018-03-08T00:37:09.183Z,89.79
2018-03-08T00:39:38.378Z,89.66
2018-03-08T00:42:07.576Z,89.62
2018-03-08T00:57:36.969Z,90.62
2018-03-08T01:00:06.191Z,90.45
2018-03-08T01:02:35.374Z,90.47
2018-03-08T01:05:05.169Z,90.28
2018-03-08T01:07:34.443Z,90.12
2018-03-08T01:10:03.697Z,89.96
2018-03-08T01:12:32.913Z,89.92
2018-03-08T01:15:02.907Z,89.76
2018-03-08T01:17:32.122Z,89.63
2018-03-08T01:20:02.083Z,89.64
2018-03-08T01:22:31.302Z,89.45
2018-03-08T01:25:00.606Z,89.37
2018-03-08T01:27:29.831Z,89.57
2018-03-08T01:29:59.819Z,89.55
2018-03-08T01:32:29.043Z,89.60
2018-03-08T01:34:59.114Z,89.80
2018-03-08T01:37:28.330Z,90.10
2018-03-08T01:39:57.570Z,90.44
2018-03-08T01:42:26.775Z,90.53
2018-03-08T01:44:55.981Z,90.69
2018-03-08T01:47:25.182Z,90.71
2018-03-08T01:49:54.375Z,90.83
2018-03-08T01:52:23.576Z,91.20
2018-03-08T01:54:52.825Z,91.33
2018-03-08T01:57:22.046Z,91.37
2018-03-08T01:59:52.019Z,91.51
2018-03-08T02:02:21.227Z,91.68
2018-03-08T02:04:50.459Z,91.67
2018-03-08T02:07:20.602Z,91.64
2018-03-08T02:09:49.814Z,91.72
2018-03-08T02:12:19.204Z,91.55
2018-03-08T02:14:49.178Z,91.56
2018-03-08T02:17:19.197Z,91.39
2018-03-08T02:19:49.197Z,91.07
2018-03-08T02:22:18.418Z,90.85
2018-03-08T02:24:48.390Z,91.05
2018-03-08T02:27:17.602Z,90.84
2018-03-08T02:29:46.860Z,90.79
2018-03-08T02:32:16.123Z,90.60
2018-03-08T02:34:46.127Z,90.66
2018-03-08T02:37:16.111Z,90.52
2018-03-08T02:39:45.321Z,90.48
2018-03-08T02:42:14.519Z,90.25
2018-03-08T02:44:43.780Z,90.20
2018-03-08T02:47:13.258Z,90.27
2018-03-08T02:49:43.241Z,90.22
2018-03-08T02:52:12.456Z,90.30
2018-03-08T02:54:41.654Z,90.12
2018-03-08T02:57:10.859Z,89.92
2018-03-08T02:59:40.819Z,90.14
2018-03-08T03:02:10.452Z,90.12
2018-03-08T03:04:39.885Z,90.25
2018-03-08T03:07:09.859Z,89.99
2018-03-08T03:09:39.060Z,89.96
2018-03-08T03:12:08.286Z,89.53
2018-03-08T03:14:38.275Z,89.51
2018-03-08T03:17:08.256Z,89.14
2018-03-08T03:19:37.446Z,89.07
2018-03-08T03:22:06.654Z,88.92
2018-03-08T03:24:35.881Z,88.66
2018-03-08T03:27:05.077Z,88.54
2018-03-08T03:29:34.291Z,88.38
2018-03-08T03:32:03.507Z,88.39
2018-03-08T03:34:33.488Z,88.28
2018-03-08T03:37:03.455Z,88.35
2018-03-08T03:39:32.764Z,88.20
2018-03-08T03:42:02.105Z,88.38
2018-03-08T03:44:31.326Z,88.31
2018-03-08T03:47:00.515Z,88.17
2018-03-08T03:49:30.507Z,88.00
2018-03-08T03:51:59.717Z,88.15
2018-03-08T03:54:29.009Z,88.08
2018-03-08T03:56:58.245Z,87.92
2018-03-08T03:59:27.447Z,88.08
2018-03-08T04:01:57.403Z,87.69
2018-03-08T04:04:26.620Z,87.38
2018-03-08T04:06:56.207Z,87.31
2018-03-08T04:09:25.426Z,86.95
2018-03-08T04:11:54.671Z,86.99
2018-03-08T04:14:25.022Z,87.24
2018-03-08T04:16:54.304Z,87.24
2018-03-08T04:19:24.084Z,87.14
2018-03-08T04:21:54.083Z,86.99
2018-03-08T04:24:23.299Z,87.29
2018-03-08T04:26:53.292Z,87.15
2018-03-08T04:29:22.940Z,86.92
2018-03-08T04:31:52.966Z,86.69
2018-03-08T04:34:22.254Z,86.65
2018-03-08T04:36:52.221Z,86.76
2018-03-08T04:39:21.469Z,86.37
2018-03-08T04:41:50.975Z,86.46
2018-03-08T04:44:20.173Z,86.25
2018-03-08T04:46:50.162Z,86.17
2018-03-08T04:49:19.381Z,86.35
2018-03-08T04:51:49.350Z,86.09
2018-03-08T04:54:18.833Z,86.14
2018-03-08T04:56:48.949Z,86.23
2018-03-08T04:59:18.143Z,86.02
2018-03-08T05:01:47.350Z,86.01
2018-03-08T05:04:16.583Z,85.77
2018-03-08T05:06:45.813Z,85.80
2018-03-08T05:09:15.128Z,85.69
2018-03-08T05:11:45.059Z,85.37
2018-03-08T05:14:14.289Z,85.18
2018-03-08T05:16:43.488Z,85.10
2018-03-08T05:19:12.721Z,85.00
2018-03-08T05:21:42.700Z,84.87
2018-03-08T05:24:11.905Z,84.68
2018-03-08T05:26:41.309Z,84.63
2018-03-08T05:29:10.558Z,84.71
2018-03-08T05:31:39.776Z,84.80
2018-03-08T05:34:09.770Z,84.68
2018-03-08T05:36:38.973Z,84.68
2018-03-08T05:39:08.168Z,84.42
2018-03-08T05:41:37.362Z,84.43
2018-03-08T05:44:07.003Z,84.67
2018-03-08T05:46:36.222Z,84.68
2018-03-08T05:49:05.489Z,84.98
2018-03-08T05:51:34.682Z,85.16
2018-03-08T05:54:04.766Z,85.31
2018-03-08T05:56:33.990Z,85.42
2018-03-08T05:59:03.216Z,85.52
2018-03-08T06:01:32.419Z,85.44
2018-03-08T06:04:01.630Z,85.56
2018-03-08T06:06:30.942Z,85.62
2018-03-08T06:09:00.156Z,85.78
2018-03-08T06:11:29.372Z,85.93
2018-03-08T06:13:58.588Z,85.79
2018-03-08T06:16:27.998Z,85.67
2018-03-08T06:18:57.521Z,85.67
2018-03-08T06:21:27.484Z,85.79
2018-03-08T06:23:56.815Z,85.88
2018-03-08T06:26:26.052Z,85.83
2018-03-08T06:28:56.003Z,86.03
2018-03-08T06:31:25.234Z,85.97
2018-03-08T06:33:54.546Z,85.90
2018-03-08T06:36:24.582Z,85.60
2018-03-08T06:38:54.591Z,85.58
2018-03-08T06:41:24.579Z,85.70
2018-03-08T06:43:53.855Z,85.70
2018-03-08T06:46:23.053Z,85.80
2018-03-08T06:48:52.246Z,85.82
2018-03-08T06:51:21.397Z,85.59
2018-03-08T06:53:51.394Z,85.65
2018-03-08T06:56:20.752Z,85.50
2018-03-08T06:58:49.959Z,85.61
2018-03-08T07:01:19.167Z,85.35
2018-03-08T07:03:48.356Z,85.44
2018-03-08T07:06:17.595Z,85.47
2018-03-08T07:08:46.987Z,85.30
2018-03-08T07:11:17.762Z,84.89
2018-03-08T07:13:47.002Z,84.29
2018-03-08T07:16:16.214Z,83.92
2018-03-08T07:18:45.555Z,83.83
2018-03-08T07:21:14.759Z,83.94
2018-03-08T07:23:43.957Z,83.80
2018-03-08T07:26:13.293Z,83.51
2018-03-08T07:28:42.571Z,83.35
2018-03-08T07:31:11.785Z,83.15
2018-03-08T07:33:41.392Z,83.22
2018-03-08T07:36:10.596Z,82.71
2018-03-08T07:38:39.824Z,82.84
2018-03-08T07:41:09.037Z,82.49
2018-03-08T07:43:39.024Z,82.29
2018-03-08T07:46:08.229Z,81.99
2018-03-08T07:48:38.000Z,81.36
2018-03-08T07:51:07.245Z,81.32
2018-03-08T07:53:36.470Z,81.13
2018-03-08T07:56:05.809Z,80.48
2018-03-08T07:58:35.026Z,80.69
2018-03-08T08:01:04.270Z,80.24
2018-03-08T08:03:33.679Z,80.21
2018-03-08T08:06:20.576Z,80.21
2018-03-08T08:09:07.594Z,79.58
2018-03-08T08:11:36.811Z,79.30
2018-03-08T08:14:06.114Z,79.26
2018-03-08T08:16:35.440Z,79.38
2018-03-08T08:19:04.646Z,79.03
2018-03-08T08:21:33.971Z,78.52
2018-03-08T08:24:03.977Z,78.12
2018-03-08T08:26:34.671Z,77.83
2018-03-08T08:29:04.212Z,77.95
2018-03-08T08:31:34.193Z,77.39
2018-03-08T08:34:03.436Z,76.83
2018-03-08T08:36:33.423Z,75.78
2018-03-08T08:39:02.639Z,75.43
2018-03-08T08:41:32.052Z,75.21
2018-03-08T08:44:02.031Z,74.75
2018-03-08T08:46:31.304Z,73.99
2018-03-08T08:49:00.589Z,73.30
2018-03-08T08:51:29.810Z,72.70
2018-03-08T08:53:59.070Z,72.80
2018-03-08T08:56:29.116Z,73.32
2018-03-08T08:58:58.541Z,73.45
2018-03-08T09:01:27.776Z,72.41
2018-03-08T09:03:57.042Z,71.50
2018-03-08T09:06:27.124Z,71.26
2018-03-08T09:08:56.770Z,71.00
2018-03-08T09:11:26.793Z,70.27
2018-03-08T09:13:56.777Z,70.34
2018-03-08T09:16:26.026Z,69.99
2018-03-08T09:18:55.252Z,68.43
2018-03-08T09:21:25.210Z,68.53
2018-03-08T09:23:55.270Z,68.56
2018-03-08T09:26:24.679Z,68.81
2018-03-08T09:28:53.909Z,68.52
2018-03-08T09:31:23.131Z,68.43
2018-03-08T09:33:52.393Z,67.99
2018-03-08T09:36:21.574Z,68.32
2018-03-08T09:38:50.832Z,67.43
2018-03-08T09:41:20.809Z,67.64
2018-03-08T09:43:50.136Z,66.15
2018-03-08T09:46:19.339Z,66.50
2018-03-08T09:48:48.690Z,66.67
2018-03-08T09:51:18.699Z,66.68
2018-03-08T09:53:47.922Z,65.29
2018-03-08T09:56:17.630Z,65.36
2018-03-08T09:58:46.840Z,66.70
2018-03-08T10:01:16.234Z,65.99
2018-03-08T10:03:45.798Z,65.10
2018-03-08T10:06:15.051Z,66.13
2018-03-08T10:08:44.343Z,65.37
2018-03-08T10:11:13.534Z,66.01
2018-03-08T10:13:42.840Z,67.20
2018-03-08T10:16:12.043Z,66.77
2018-03-08T10:18:41.268Z,66.58
2018-03-08T10:21:11.255Z,66.62
2018-03-08T10:23:40.454Z,67.96
2018-03-08T10:26:09.722Z,67.27
2018-03-08T10:28:38.860Z,67.03
2018-03-08T10:31:08.127Z,67.31
2018-03-08T10:33:38.067Z,68.05
2018-03-08T10:36:07.408Z,67.60
2018-03-08T10:38:37.388Z,66.65
2018-03-08T10:41:06.610Z,67.14
2018-03-08T10:43:35.808Z,66.66
2018-03-08T10:46:05.076Z,66.60
2018-03-08T10:48:34.286Z,66.28
2018-03-08T10:51:04.387Z,66.47
2018-03-08T10:53:34.422Z,66.66
2018-03-08T10:56:03.645Z,65.92
2018-03-08T10:58:33.651Z,65.02
2018-03-08T11:01:03.659Z,64.83
2018-03-08T11:03:48.561Z,66.05
2018-03-08T11:06:20.592Z,65.94
2018-03-08T11:08:49.819Z,66.03
2018-03-08T11:11:19.086Z,66.93
2018-03-08T11:13:49.839Z,66.94
2018-03-08T11:16:19.118Z,66.69
2018-03-08T11:18:48.372Z,65.43
2018-03-08T11:21:18.294Z,65.90
2018-03-08T11:23:47.539Z,65.33
2018-03-08T11:26:16.752Z,66.00
2018-03-08T11:28:46.726Z,66.51
2018-03-08T11:31:15.959Z,66.95
2018-03-08T11:33:45.949Z,67.10
2018-03-08T11:36:15.252Z,65.47
2018-03-08T11:38:44.502Z,65.37
2018-03-08T11:41:13.686Z,66.13
2018-03-08T11:43:42.971Z,65.70
2018-03-08T11:46:12.943Z,64.98
2018-03-08T11:48:42.213Z,65.32
2018-03-08T11:51:11.449Z,64.21
2018-03-08T11:53:40.645Z,64.57
2018-03-08T11:56:09.867Z,63.87
2018-03-08T11:58:39.122Z,64.70
2018-03-08T12:01:08.312Z,64.61
2018-03-08T12:03:37.550Z,64.97
2018-03-08T12:06:06.946Z,64.64
2018-03-08T12:08:36.150Z,65.11
2018-03-08T12:11:05.868Z,65.44
2018-03-08T12:13:35.026Z,65.12
2018-03-08T12:16:04.247Z,64.86
2018-03-08T12:18:33.642Z,64.82
2018-03-08T12:21:02.866Z,64.16
2018-03-08T12:23:32.045Z,64.48
2018-03-08T12:26:01.290Z,64.95
2018-03-08T12:28:31.258Z,64.55
2018-03-08T12:31:00.471Z,64.81
2018-03-08T12:33:30.476Z,64.32
2018-03-08T12:36:00.481Z,63.97
2018-03-08T12:38:29.680Z,64.18
2018-03-08T12:40:59.148Z,64.71
2018-03-08T12:43:28.350Z,64.75
2018-03-08T12:45:57.554Z,63.49
2018-03-08T12:48:26.714Z,64.26
2018-03-08T12:50:55.912Z,64.09
2018-03-08T12:53:25.163Z,63.78
2018-03-08T12:55:54.367Z,63.49
2018-03-08T12:58:23.606Z,63.83
2018-03-08T13:00:53.561Z,64.35
2018-03-08T13:03:22.760Z,64.80
2018-03-08T13:05:53.019Z,66.42
2018-03-08T13:08:23.043Z,68.55
2018-03-08T13:10:53.018Z,69.53
2018-03-08T13:13:22.312Z,71.25
2018-03-08T13:15:51.528Z,71.81
2018-03-08T13:18:20.779Z,73.48
2018-03-08T13:20:50.071Z,73.58
2018-03-08T13:23:19.274Z,74.66
2018-03-08T13:25:48.512Z,74.96
2018-03-08T13:28:17.718Z,74.29
2018-03-08T13:30:46.936Z,74.96
2018-03-08T13:33:16.919Z,75.90
2018-03-08T13:35:46.151Z,75.70
2018-03-08T13:38:16.190Z,75.91
2018-03-08T13:40:45.365Z,76.63
2018-03-08T13:43:15.573Z,76.54
2018-03-08T13:45:44.929Z,76.86
2018-03-08T13:48:14.869Z,77.78
2018-03-08T13:50:44.066Z,77.99
2018-03-08T13:53:13.448Z,78.25
2018-03-08T13:55:42.665Z,79.26
2018-03-08T13:58:11.873Z,79.06
2018-03-08T14:00:41.244Z,79.81
2018-03-08T14:03:10.481Z,80.24
2018-03-08T14:05:39.822Z,80.42
2018-03-08T14:08:09.541Z,80.80
2018-03-08T14:10:38.769Z,81.24
2018-03-08T14:13:07.983Z,81.64
2018-03-08T14:15:37.202Z,81.65
2018-03-08T14:18:07.198Z,82.37
2018-03-08T14:20:36.394Z,82.41
2018-03-08T14:23:05.619Z,82.49
2018-03-08T14:25:35.732Z,82.76
2018-03-08T14:28:05.963Z,83.12
2018-03-08T14:30:35.149Z,83.00
2018-03-08T14:33:05.130Z,83.30
2018-03-08T14:35:34.401Z,83.41
2018-03-08T14:38:03.667Z,83.10
2018-03-08T14:40:33.727Z,83.58
2018-03-08T14:43:02.945Z,84.48
2018-03-08T14:45:32.310Z,84.76
2018-03-08T14:48:01.545Z,85.20
2018-03-08T14:50:30.743Z,84.98
2018-03-08T14:53:00.023Z,85.19
2018-03-08T14:55:29.230Z,85.47
2018-03-08T14:57:59.191Z,85.87
2018-03-08T15:00:28.420Z,85.96
2018-03-08T15:02:57.782Z,86.10
2018-03-08T15:05:27.738Z,85.92
2018-03-08T15:07:56.972Z,85.79
2018-03-08T15:10:26.164Z,86.10
2018-03-08T15:12:55.823Z,86.33
2018-03-08T15:15:25.038Z,86.70
2018-03-08T15:17:54.263Z,87.13
2018-03-08T15:20:23.477Z,87.73
2018-03-08T15:22:53.756Z,88.04
2018-03-08T15:25:22.975Z,87.71
2018-03-08T15:27:52.988Z,87.46
2018-03-08T15:30:22.244Z,87.55
2018-03-08T15:32:52.198Z,87.88
2018-03-08T15:35:21.420Z,87.70
2018-03-08T15:37:51.466Z,88.01
2018-03-08T15:40:21.473Z,88.26
2018-03-08T15:42:51.471Z,87.74
2018-03-08T15:45:21.200Z,87.89
2018-03-08T15:47:51.171Z,87.83
2018-03-08T15:50:20.419Z,87.71
2018-03-08T15:52:50.615Z,87.88
2018-03-08T15:55:20.155Z,87.89
2018-03-08T15:57:49.991Z,87.94
2018-03-08T16:00:19.217Z,88.02
2018-03-08T16:02:49.810Z,88.09
2018-03-08T16:05:19.784Z,88.04
2018-03-08T16:21:40.286Z,88.00
2018-03-08T16:24:10.331Z,88.46
2018-03-08T16:26:39.552Z,88.62
2018-03-08T16:29:08.820Z,88.59
2018-03-08T16:31:38.136Z,88.39
2018-03-08T16:34:07.515Z,88.08
2018-03-08T16:36:36.706Z,88.38
2018-03-08T16:39:05.978Z,87.72
2018-03-08T16:41:35.939Z,87.61
2018-03-08T16:44:05.206Z,87.36
2018-03-08T16:46:34.408Z,87.65
2018-03-08T16:49:03.901Z,87.22
2018-03-08T16:51:34.095Z,87.06
2018-03-08T16:54:03.283Z,86.45
2018-03-08T16:56:32.506Z,85.92
2018-03-08T16:59:02.522Z,85.48
2018-03-08T17:01:31.763Z,85.52
2018-03-08T17:04:01.041Z,85.65
2018-03-08T17:06:31.040Z,85.59
2018-03-08T17:09:01.019Z,85.28
2018-03-08T17:11:31.038Z,84.97
2018-03-08T17:14:01.070Z,84.75
2018-03-08T17:16:30.334Z,84.51
2018-03-08T17:18:59.558Z,84.81
2018-03-08T17:21:28.812Z,84.70
2018-03-08T17:23:58.005Z,83.98
2018-03-08T17:26:27.212Z,84.30
2018-03-08T17:28:56.478Z,83.83
2018-03-08T17:31:25.738Z,83.92
2018-03-08T17:33:54.966Z,84.03
2018-03-08T17:36:24.209Z,84.14
2018-03-08T17:38:53.714Z,84.55
2018-03-08T17:41:22.969Z,84.88
2018-03-08T17:43:52.221Z,84.74
2018-03-08T17:46:21.522Z,84.69
2018-03-08T17:48:50.753Z,84.43
2018-03-08T17:51:19.970Z,84.32
2018-03-08T17:53:50.794Z,84.29
2018-03-08T17:56:20.040Z,84.35
2018-03-08T17:58:49.252Z,84.41
2018-03-08T18:01:18.447Z,83.63
2018-03-08T18:03:47.803Z,83.52
2018-03-08T18:06:17.281Z,83.74
2018-03-08T18:08:47.216Z,83.60
2018-03-08T18:11:17.179Z,83.72
2018-03-08T18:13:46.420Z,83.85
2018-03-08T18:16:15.636Z,83.63
2018-03-08T18:18:45.610Z,83.87
2018-03-08T18:21:14.830Z,83.63
2018-03-08T18:23:44.080Z,83.76
2018-03-08T18:26:13.320Z,83.96
2018-03-08T18:28:42.527Z,83.84
2018-03-08T18:31:12.576Z,83.79
2018-03-08T18:33:42.551Z,84.02
2018-03-08T18:36:11.780Z,83.75
2018-03-08T18:38:41.987Z,83.80
2018-03-08T18:41:12.036Z,83.74
2018-03-08T18:43:42.082Z,83.95
2018-03-08T18:46:11.359Z,84.35
2018-03-08T18:48:40.579Z,84.49
2018-03-08T18:51:09.792Z,84.64
2018-03-08T18:53:39.115Z,84.54
2018-03-08T18:56:09.100Z,84.77
2018-03-08T18:58:38.321Z,85.00
2018-03-08T19:01:07.530Z,85.85
2018-03-08T19:03:37.540Z,86.45
2018-03-08T19:06:07.520Z,86.41
2018-03-08T19:08:36.741Z,86.96
2018-03-08T19:11:05.944Z,87.04
2018-03-08T19:13:36.739Z,88.00
2018-03-08T19:16:06.290Z,88.80
2018-03-08T19:18:36.359Z,89.42
2018-03-08T19:21:05.548Z,87.87
2018-03-08T19:23:34.735Z,87.44
2018-03-08T19:26:04.026Z,89.94
2018-03-08T19:28:33.274Z,91.32
2018-03-08T19:31:02.498Z,91.99
2018-03-08T19:33:31.819Z,91.51
2018-03-08T19:36:01.082Z,89.75
2018-03-08T19:38:30.346Z,89.79
2018-03-08T19:40:59.669Z,89.36
2018-03-08T19:43:28.873Z,88.83
2018-03-08T19:45:58.138Z,88.75
2018-03-08T19:48:27.316Z,88.24
2018-03-08T19:50:56.562Z,87.90
2018-03-08T19:53:26.088Z,88.69
2018-03-08T19:55:56.070Z,88.71
2018-03-08T19:58:25.399Z,88.04
2018-03-08T20:00:55.428Z,88.01
2018-03-08T20:03:25.410Z,87.48
2018-03-08T20:05:54.647Z,87.65
2018-03-08T20:08:24.644Z,87.80
2018-03-08T20:10:53.855Z,87.76
2018-03-08T20:13:23.854Z,87.91
2018-03-08T20:15:53.079Z,88.19
2018-03-08T20:18:22.358Z,88.48
2018-03-08T20:20:51.683Z,88.63
2018-03-08T20:23:20.913Z,88.54
2018-03-08T20:25:50.138Z,88.67
2018-03-08T20:28:19.367Z,88.82
2018-03-08T20:30:48.630Z,88.70
2018-03-08T20:33:17.803Z,88.71
2018-03-08T20:35:47.878Z,88.66
2018-03-08T20:38:17.830Z,88.28
2018-03-08T20:40:47.101Z,88.32
2018-03-08T20:43:16.330Z,88.36
2018-03-08T20:45:45.552Z,88.53
2018-03-08T20:48:14.786Z,88.42
2018-03-08T20:50:44.121Z,88.45
2018-03-08T20:53:13.304Z,88.54
2018-03-08T20:55:42.526Z,88.75
2018-03-08T20:58:12.281Z,88.78
2018-03-08T21:00:42.280Z,88.93
2018-03-08T21:03:11.547Z,89.13
2018-03-08T21:05:40.751Z,88.89
2018-03-08T21:08:09.987Z,88.86
2018-03-08T21:10:40.055Z,88.87
2018-03-08T21:13:09.880Z,88.61
2018-03-08T21:15:39.079Z,88.50
2018-03-08T21:18:08.368Z,88.13
2018-03-08T21:20:37.947Z,88.27
2018-03-08T21:23:07.151Z,87.92
2018-03-08T21:25:36.362Z,87.96
2018-03-08T21:28:05.600Z,87.84
2018-03-08T21:30:34.800Z,88.23
2018-03-08T21:33:04.002Z,88.01
2018-03-08T21:35:34.026Z,87.86
2018-03-08T21:38:04.071Z,87.77
2018-03-08T21:40:33.478Z,88.07
2018-03-08T21:43:02.680Z,88.04
2018-03-08T21:45:32.409Z,88.17
2018-03-08T21:48:01.616Z,88.08
2018-03-08T21:50:30.867Z,87.80
2018-03-08T21:53:00.660Z,88.24
2018-03-08T21:55:30.637Z,88.04
2018-03-08T21:57:59.832Z,87.82
2018-03-08T22:00:29.045Z,87.64
2018-03-08T22:02:58.352Z,87.35
2018-03-08T22:05:27.687Z,87.66
2018-03-08T22:07:57.014Z,87.19
2018-03-08T22:10:27.467Z,87.13
2018-03-08T22:12:57.489Z,87.10
2018-03-08T22:15:26.693Z,86.55
2018-03-08T22:17:56.695Z,86.39
2018-03-08T22:20:25.959Z,86.30
2018-03-08T22:22:55.150Z,86.23
2018-03-08T22:25:24.457Z,85.90
2018-03-08T22:27:53.659Z,85.80
2018-03-08T22:30:22.903Z,85.52
2018-03-08T22:32:52.117Z,85.73
2018-03-08T22:35:22.125Z,85.36
2018-03-08T22:37:51.810Z,85.08
2018-03-08T22:40:22.851Z,84.53
2018-03-08T22:42:52.952Z,84.48
2018-03-08T22:45:22.157Z,84.15
2018-03-08T22:47:51.369Z,84.01
2018-03-08T22:50:20.571Z,84.33
2018-03-08T22:52:49.791Z,83.94
2018-03-08T22:55:19.813Z,83.50
2018-03-08T22:57:49.298Z,84.01
2018-03-08T23:00:18.508Z,83.89
2018-03-08T23:02:48.488Z,84.51
2018-03-08T23:05:17.740Z,83.73
2018-03-08T23:07:47.702Z,83.91
2018-03-08T23:10:16.897Z,83.78
2018-03-08T23:12:46.095Z,83.76
2018-03-08T23:15:15.456Z,84.28
2018-03-08T23:17:44.667Z,83.92
2018-03-08T23:20:14.051Z,83.72
2018-03-08T23:22:44.053Z,83.88
2018-03-08T23:25:14.019Z,83.67
2018-03-08T23:27:43.222Z,83.74
2018-03-08T23:30:12.619Z,84.09
2018-03-08T23:32:41.872Z,83.53
2018-03-08T23:35:11.099Z,83.58
2018-03-08T23:37:40.303Z,83.43
2018-03-08T23:40:09.499Z,83.50
2018-03-08T23:42:38.724Z,83.29
2018-03-08T23:45:07.945Z,83.72
2018-03-08T23:47:37.914Z,83.63
2018-03-08T23:50:07.152Z,83.53
2018-03-08T23:52:37.146Z,83.34
2018-03-08T23:55:06.538Z,83.63
2018-03-08T23:57:35.724Z,84.19
